Time;durP1;ratioP1;P1;durP2;ratioP2;P2;SDS_P1;SDS_P2;PMS_P1;PMS_P2;Temp;Humidity;BMP_temperature;BMP_pressure;BME280_temperature;BME280_humidity;BME280_pressure;Samples;Min_cycle;Max_cycle;Signal;HPM_P1;HPM_P2
2022/12/20 00:00:05;;;;;;;38.13;18.33;;;;;;;-1.62;86.46;99755.97;10281853;28;20193;-56
2022/12/20 00:05:04;;;;;;;37.30;18.35;;;;;;;-1.72;87.04;99762.00;10288874;28;20113;-56
2022/12/20 00:10:04;;;;;;;;;;;;;;;-1.78;86.80;99751.31;10288061;28;20148;-56
2022/12/20 00:15:03;;;;;;;32.85;16.20;;;;;;;-1.81;86.89;99768.91;10286348;28;20653;-56
2022/12/20 00:20:03;;;;;;;34.65;16.73;;;;;;;-1.76;87.29;99772.69;10265023;28;20120;-56
2022/12/20 00:25:03;;;;;;;29.83;13.40;;;;;;;-1.95;87.71;99765.25;10252340;28;20137;-55
2022/12/20 00:30:03;;;;;;;32.58;14.43;;;;;;;-1.96;88.19;99765.13;10270447;28;20142;-55
2022/12/20 00:35:02;;;;;;;25.73;10.88;;;;;;;-2.16;87.38;99759.31;10278421;28;20112;-55
2022/12/20 00:40:02;;;;;;;;;;;;;;;-2.21;88.13;99783.50;10275671;28;20496;-55
2022/12/20 00:45:01;;;;;;;34.58;15.50;;;;;;;-2.09;87.72;99779.41;10272628;28;19953;-55
2022/12/20 00:50:00;;;;;;;35.05;16.55;;;;;;;-2.00;87.53;99770.75;10274294;28;20061;-56
2022/12/20 00:54:59;;;;;;;32.90;14.20;;;;;;;-1.92;87.76;99769.69;10272006;28;20080;-55
2022/12/20 00:59:58;;;;;;;29.92;14.00;;;;;;;-2.02;87.28;99760.44;10271171;28;20080;-56
2022/12/20 01:04:57;;;;;;;29.08;15.85;;;;;;;-2.07;87.12;99760.06;10273232;28;20040;-56
2022/12/20 01:09:56;;;;;;;34.25;15.32;;;;;;;-1.99;87.49;99757.25;10271762;28;20037;-56
2022/12/20 01:14:55;;;;;;;27.33;13.15;;;;;;;-2.02;87.17;99750.25;10282671;28;20623;-56
2022/12/20 01:19:54;;;;;;;27.98;14.60;;;;;;;-2.01;86.66;99740.97;10275198;28;20561;-56
2022/12/20 01:24:53;;;;;;;37.83;15.48;;;;;;;-2.02;86.99;99734.13;10270563;28;20094;-56
2022/12/20 01:29:52;;;;;;;36.58;15.20;;;;;;;-2.09;86.98;99718.34;10277302;28;20297;-56
2022/12/20 01:34:53;;;;;;;31.77;16.13;;;;;;;-2.08;87.25;99726.88;10270664;28;20509;-56
2022/12/20 01:39:52;;;;;;;34.70;17.63;;;;;;;-2.01;86.77;99725.69;10275059;28;20065;-56
2022/12/20 01:44:54;;;;;;;38.20;18.67;;;;;;;-1.97;86.85;99720.09;10270457;28;20030;-56
2022/12/20 01:49:56;;;;;;;34.92;15.40;;;;;;;-1.92;87.12;99696.78;10269609;28;20068;-56
2022/12/20 01:55:17;;;;;;;49.85;24.15;;;;;;;-1.79;87.30;99693.56;10268033;28;20077;-56
2022/12/20 02:00:17;;;;;;;33.70;15.98;;;;;;;-1.71;87.26;99695.03;10272872;28;20065;-56
2022/12/20 02:05:19;;;;;;;33.67;14.82;;;;;;;-1.91;86.95;99697.69;10267470;28;20864;-56
2022/12/20 02:10:23;;;;;;;34.33;14.18;;;;;;;-2.00;86.84;99694.44;10269213;28;20113;-56
2022/12/20 02:15:31;;;;;;;27.33;13.43;;;;;;;-2.16;87.19;99690.66;10269407;28;20076;-56
2022/12/20 02:20:52;;;;;;;30.23;14.82;;;;;;;-2.45;88.00;99687.41;10269816;28;20077;-56
2022/12/20 02:26:14;;;;;;;29.55;14.20;;;;;;;-2.75;88.45;99686.69;10268636;28;20049;-55
2022/12/20 02:31:18;;;;;;;33.70;15.73;;;;;;;-2.93;89.02;99681.84;10268130;28;20073;-56
2022/12/20 02:36:17;;;;;;;29.92;13.68;;;;;;;-3.03;89.21;99676.78;10266905;28;20054;-56
2022/12/20 02:41:22;;;;;;;33.42;15.52;;;;;;;-3.11;89.13;99667.63;10267079;28;20851;-56
2022/12/20 02:46:23;;;;;;;35.05;16.10;;;;;;;-3.22;89.33;99665.88;10266178;28;20470;-55
2022/12/20 02:51:25;;;;;;;52.95;23.20;;;;;;;-3.26;89.53;99671.44;10267054;28;20061;-55
2022/12/20 02:56:31;;;;;;;30.42;15.13;;;;;;;-3.36;89.90;99660.53;10265340;28;20471;-55
2022/12/20 03:01:39;;;;;;;50.30;22.73;;;;;;;-3.40;90.63;99650.84;10270232;28;20050;-56
2022/12/20 03:06:39;;;;;;;38.28;16.55;;;;;;;-3.33;90.20;99650.63;10267719;28;20065;-55
2022/12/20 03:11:37;;;;;;;67.13;29.67;;;;;;;-3.18;90.20;99656.09;10272645;28;20460;-56
2022/12/20 03:16:36;;;;;;;40.03;17.75;;;;;;;-3.07;90.36;99654.44;10274317;28;20570;-56
2022/12/20 03:21:35;;;;;;;51.47;21.98;;;;;;;-2.96;90.21;99652.78;10275472;28;20064;-56
2022/12/20 03:26:35;;;;;;;41.63;20.73;;;;;;;-2.82;90.40;99662.44;10274488;28;20026;-55
2022/12/20 03:31:35;;;;;;;47.22;22.35;;;;;;;-2.69;90.16;99659.22;10275693;28;20060;-55
2022/12/20 03:36:34;;;;;;;47.00;21.20;;;;;;;-2.62;89.92;99661.50;10273282;28;20058;-56
2022/12/20 03:41:33;;;;;;;43.65;18.88;;;;;;;-2.56;89.57;99656.94;10284933;28;20054;-56
2022/12/20 03:46:32;;;;;;;46.55;22.20;;;;;;;-2.61;90.13;99660.75;10282067;28;20052;-55
2022/12/20 03:51:31;;;;;;;39.65;18.50;;;;;;;-2.68;89.72;99635.63;10279249;28;20499;-56
2022/12/20 03:56:30;;;;;;;43.22;19.50;;;;;;;-2.63;89.81;99654.66;10276181;28;20109;-56
2022/12/20 04:01:29;;;;;;;40.35;17.98;;;;;;;-2.58;90.02;99637.25;10278443;28;20121;-56
2022/12/20 04:06:28;;;;;;;;;;;;;;;-2.52;89.82;99651.34;10274093;28;20092;-56
2022/12/20 04:11:27;;;;;;;40.13;18.92;;;;;;;-2.53;89.38;99630.88;10273007;28;20083;-56
2022/12/20 04:16:28;;;;;;;42.08;18.40;;;;;;;-2.53;89.05;99636.84;10275367;28;20053;-56
2022/12/20 04:21:30;;;;;;;37.08;16.92;;;;;;;-2.76;89.86;99614.66;10268393;28;20072;-56
2022/12/20 04:26:29;;;;;;;34.75;17.10;;;;;;;-2.82;89.65;99626.88;10270047;28;20072;-56
2022/12/20 04:31:28;;;;;;;39.53;17.35;;;;;;;-2.91;90.33;99619.38;10270429;28;20083;-56
2022/12/20 04:36:27;;;;;;;85.40;39.17;;;;;;;-2.71;90.20;99620.09;10271542;28;20038;-56
2022/12/20 04:41:26;;;;;;;52.47;24.02;;;;;;;-2.46;90.07;99617.00;10268035;28;20062;-56
2022/12/20 04:46:25;;;;;;;41.95;20.38;;;;;;;-2.42;89.48;99619.03;10288490;28;20061;-56
2022/12/20 04:51:25;;;;;;;51.65;22.83;;;;;;;-2.45;89.54;99614.59;10284312;28;20125;-56
2022/12/20 04:56:27;;;;;;;345.25;123.43;;;;;;;-2.44;89.65;99611.28;10291815;28;20066;-56
2022/12/20 05:01:26;;;;;;;246.23;108.22;;;;;;;-2.42;89.94;99611.41;10292971;28;20487;-56
2022/12/20 05:06:25;;;;;;;58.45;25.17;;;;;;;-2.38;90.06;99605.78;10289169;28;20494;-56
2022/12/20 05:11:24;;;;;;;41.45;19.15;;;;;;;-2.59;90.05;99610.94;10290484;28;20522;-56
2022/12/20 05:16:23;;;;;;;43.75;20.75;;;;;;;-2.98;90.64;99606.94;10289695;28;20145;-56
2022/12/20 05:26:40;;;;;;;44.33;19.55;;;;;;;-3.19;91.43;99605.19;10260948;28;20073;-56
2022/12/20 05:31:39;;;;;;;38.28;14.93;;;;;;;-3.39;92.55;99614.59;10290641;28;20483;-56
2022/12/20 05:36:38;;;;;;;38.42;17.73;;;;;;;-3.37;92.78;99607.06;10288090;28;20494;-56
2022/12/20 05:41:39;;;;;;;38.83;16.90;;;;;;;-3.42;93.30;99609.22;10289854;28;20494;-56
2022/12/20 05:46:38;;;;;;;48.55;18.95;;;;;;;-3.29;93.19;99611.16;10289053;28;20490;-56
2022/12/20 05:51:37;;;;;;;41.65;18.90;;;;;;;-3.23;93.23;99610.75;10280817;28;20762;-56
2022/12/20 05:56:36;;;;;;;46.45;22.20;;;;;;;-3.08;93.04;99612.03;10266363;28;20097;-56
2022/12/20 06:01:35;;;;;;;39.65;18.88;;;;;;;-2.80;92.82;99609.22;10288653;28;20498;-56
2022/12/20 06:06:34;;;;;;;53.72;27.45;;;;;;;-2.59;92.36;99615.13;10279661;28;20080;-56
2022/12/20 06:11:33;;;;;;;41.38;18.50;;;;;;;-2.70;92.08;99602.44;10287153;28;20046;-56
2022/12/20 06:16:32;;;;;;;40.40;18.83;;;;;;;-2.65;91.89;99597.72;10286263;28;20038;-56
2022/12/20 06:21:32;;;;;;;43.00;20.35;;;;;;;-2.51;91.13;99609.88;10288749;28;20044;-56
2022/12/20 06:26:35;;;;;;;44.95;20.63;;;;;;;-2.49;90.83;99618.53;10280635;28;20037;-56
2022/12/20 06:31:34;;;;;;;44.30;19.13;;;;;;;-2.50;90.57;99619.31;10284940;28;20081;-56
2022/12/20 06:36:33;;;;;;;43.42;19.15;;;;;;;-2.51;90.95;99617.50;10286498;28;20045;-55
2022/12/20 06:41:32;;;;;;;42.25;18.20;;;;;;;-2.47;90.38;99610.16;10285868;28;20069;-56
2022/12/20 06:46:31;;;;;;;46.78;21.40;;;;;;;-2.39;90.36;99593.84;10284373;28;20041;-56
2022/12/20 06:51:30;;;;;;;47.92;22.80;;;;;;;-2.30;89.46;99602.19;10271764;28;20041;-56
2022/12/20 06:56:29;;;;;;;48.67;22.75;;;;;;;-2.28;89.35;99593.03;10276615;28;20037;-55
2022/12/20 07:01:27;;;;;;;49.42;21.60;;;;;;;-2.27;88.99;99590.59;10282804;28;20045;-55
2022/12/20 07:06:28;;;;;;;47.28;21.25;;;;;;;-2.37;89.19;99574.53;10286015;28;20033;-56
2022/12/20 07:11:27;;;;;;;50.50;23.25;;;;;;;-2.22;89.17;99582.44;10286814;28;20085;-56
2022/12/20 07:16:26;;;;;;;46.75;21.48;;;;;;;-2.15;88.96;99582.16;10286850;28;20042;-56
2022/12/20 07:21:25;;;;;;;48.58;21.23;;;;;;;-2.17;88.63;99581.16;10288688;28;20032;-56
2022/12/20 07:26:24;;;;;;;51.50;23.30;;;;;;;-2.22;89.10;99573.16;10265082;28;20108;-55
2022/12/20 07:31:23;;;;;;;46.17;18.60;;;;;;;-2.14;88.55;99568.69;10287309;28;20108;-56
2022/12/20 07:36:21;;;;;;;40.55;18.98;;;;;;;-2.24;88.32;99572.19;10285353;28;20068;-56
2022/12/20 07:41:21;;;;;;;40.70;18.88;;;;;;;-2.30;88.45;99569.16;10283968;28;20042;-56
2022/12/20 07:46:20;;;;;;;;;;;;;;;-2.41;88.34;99569.94;10286637;28;20068;-56
2022/12/20 07:51:36;;;;;;;39.58;17.55;;;;;;;-2.54;88.66;99569.00;10286331;28;20671;-68
2022/12/20 07:56:39;;;;;;;57.35;27.70;;;;;;;-2.44;88.62;99554.47;10282660;28;20091;-56
2022/12/20 08:01:43;;;;;;;43.17;20.08;;;;;;;-2.33;88.75;99568.91;10291914;28;20068;-56
2022/12/20 08:06:42;;;;;;;59.13;25.05;;;;;;;-2.32;88.15;99563.06;10274783;28;20057;-56
2022/12/20 08:11:43;;;;;;;;;;;;;;;-2.11;87.41;99562.19;10288622;28;20068;-56
2022/12/20 08:16:42;;;;;;;47.38;22.23;;;;;;;-1.95;86.94;99523.56;10280402;28;20379;-56
2022/12/20 08:21:41;;;;;;;55.88;26.27;;;;;;;-1.58;86.21;99541.63;10293183;28;20066;-57
2022/12/20 08:26:41;;;;;;;56.15;28.10;;;;;;;-1.55;85.65;99538.41;10266520;28;20095;-56
2022/12/20 08:31:41;;;;;;;50.17;23.92;;;;;;;-1.39;84.69;99533.69;10293639;28;20060;-56
2022/12/20 08:36:40;;;;;;;46.85;24.55;;;;;;;-1.32;83.88;99538.47;10292711;28;20076;-56
2022/12/20 08:41:39;;;;;;;60.50;30.15;;;;;;;-1.26;83.88;99533.84;10293529;28;20022;-56
2022/12/20 08:46:38;;;;;;;44.92;24.70;;;;;;;-1.12;82.63;99531.41;10272274;28;20486;-56
2022/12/20 08:51:37;;;;;;;49.65;23.95;;;;;;;-1.06;81.83;99531.88;10283906;28;20435;-56
2022/12/20 08:56:36;;;;;;;49.83;25.38;;;;;;;-1.14;81.52;99530.41;10289802;28;20038;-56
2022/12/20 09:01:34;;;;;;;59.17;27.35;;;;;;;-1.29;81.24;99527.63;10292252;28;20431;-56
2022/12/20 09:06:34;;;;;;;45.83;23.23;;;;;;;-1.47;81.64;99520.41;10294271;28;20042;-56
2022/12/20 09:11:33;;;;;;;49.30;24.70;;;;;;;-1.61;81.93;99461.59;10289217;28;20747;-56
2022/12/20 09:16:32;;;;;;;52.15;26.23;;;;;;;-1.16;80.92;99501.41;10281263;28;20655;-56
2022/12/20 09:21:32;;;;;;;44.30;20.33;;;;;;;-1.29;80.36;99499.59;10287921;28;20069;-56
2022/12/20 09:26:33;;;;;;;48.10;23.42;;;;;;;-1.60;81.00;99482.06;10280076;28;20903;-56
2022/12/20 09:31:32;;;;;;;41.00;22.35;;;;;;;-1.43;80.89;99475.66;10271185;28;20056;-56
2022/12/20 09:36:31;;;;;;;121.35;49.92;;;;;;;-1.10;80.60;99476.38;10278825;28;20028;-57
2022/12/20 09:41:33;;;;;;;53.92;24.48;;;;;;;-1.31;80.15;99461.28;10290745;28;20040;-56
2022/12/20 09:46:32;;;;;;;56.95;27.73;;;;;;;-1.49;80.57;99460.84;10286443;28;20068;-56
2022/12/20 09:51:37;;;;;;;46.13;23.00;;;;;;;-1.68;81.17;99445.88;10290509;28;20060;-56
2022/12/20 09:56:43;;;;;;;53.45;27.42;;;;;;;-1.78;81.12;99427.25;10277303;28;20077;-56
2022/12/20 10:01:45;;;;;;;50.78;24.50;;;;;;;-1.53;82.01;99422.31;10275352;28;20110;-57
2022/12/20 10:07:08;;;;;;;56.10;26.23;;;;;;;-1.30;81.12;99414.69;10278124;28;20068;-56
2022/12/20 10:12:43;;;;;;;54.50;27.90;;;;;;;-1.13;81.28;99399.72;10273175;28;20129;-56
2022/12/20 10:17:45;;;;;;;45.28;21.80;;;;;;;-0.91;80.42;99382.63;10279403;28;20088;-56
2022/12/20 10:22:51;;;;;;;162.40;66.68;;;;;;;-0.69;81.05;99373.94;10285220;28;20066;-56
2022/12/20 10:27:55;;;;;;;82.28;36.58;;;;;;;-0.32;80.25;99356.03;10286627;28;20064;-56
2022/12/20 10:32:57;;;;;;;72.28;34.42;;;;;;;-0.16;78.97;99329.13;10288698;28;20072;-56
2022/12/20 10:38:11;;;;;;;51.33;25.58;;;;;;;0.08;78.73;99322.94;10294341;28;20092;-56
2022/12/20 10:43:21;;;;;;;54.35;25.52;;;;;;;0.26;77.79;99303.72;10271909;28;20478;-56
2022/12/20 10:48:28;;;;;;;108.05;47.30;;;;;;;0.05;77.40;99301.59;10271188;28;20069;-57
2022/12/20 10:53:29;;;;;;;40.47;19.98;;;;;;;-0.07;78.67;99285.44;10273598;28;20511;-56
2022/12/20 10:58:31;;;;;;;45.33;22.50;;;;;;;-0.06;78.49;99287.22;10271793;28;20502;-56
2022/12/20 11:03:30;;;;;;;41.53;18.38;;;;;;;-0.34;78.68;99276.88;10271753;28;20069;-56
2022/12/20 11:08:32;;;;;;;45.42;21.38;;;;;;;-0.33;79.43;99252.25;10272427;28;20070;-56
2022/12/20 11:13:31;;;;;;;35.05;17.92;;;;;;;-0.28;79.52;99276.38;10270836;28;20064;-56
2022/12/20 11:18:58;;;;;;;41.47;19.67;;;;;;;-0.60;80.26;99263.28;10269953;28;20133;-56
2022/12/20 11:24:13;;;;;;;53.17;24.30;;;;;;;-0.59;80.92;99246.31;10271048;28;20117;-56
2022/12/20 11:29:31;;;;;;;42.72;20.73;;;;;;;-0.28;79.83;99239.00;10269007;28;21523;-60
2022/12/20 11:34:36;;;;;;;205.18;82.38;;;;;;;0.03;79.39;99228.22;10274917;28;20053;-56
2022/12/20 11:40:01;;;;;;;54.72;25.25;;;;;;;0.34;79.07;99223.41;10274762;28;20069;-56
2022/12/20 11:45:20;;;;;;;41.45;21.15;;;;;;;0.39;78.00;99222.03;10292544;28;20566;-56
2022/12/20 11:50:50;;;;;;;43.75;20.23;;;;;;;0.41;77.38;99214.47;10276970;28;20068;-56
2022/12/20 11:55:53;;;;;;;36.40;18.52;;;;;;;0.18;77.44;99219.00;10275433;28;20892;-56
2022/12/20 12:01:16;;;;;;;35.97;19.27;;;;;;;0.22;77.51;99212.44;10277245;28;20472;-55
2022/12/20 12:06:25;;;;;;;104.38;49.63;;;;;;;0.30;77.39;99213.78;10277265;28;20056;-55
2022/12/20 12:11:30;;;;;;;47.15;23.15;;;;;;;0.60;77.42;99193.50;10277412;28;20510;-55
2022/12/20 12:16:40;;;;;;;36.92;19.65;;;;;;;0.65;76.76;99187.00;10277116;28;20061;-55
2022/12/20 12:21:47;;;;;;;84.82;38.15;;;;;;;0.84;76.47;99184.75;10283337;28;20056;-56
2022/12/20 12:26:46;;;;;;;110.53;50.25;;;;;;;1.19;76.28;99193.66;10281156;28;20061;-55
2022/12/20 12:32:31;;;;;;;46.75;24.80;;;;;;;1.29;75.76;99189.94;10291145;28;20057;-55
2022/12/20 12:37:36;;;;;;;37.80;19.80;;;;;;;1.42;74.41;99186.44;10269052;28;20069;-55
2022/12/20 12:42:47;;;;;;;40.83;20.88;;;;;;;1.54;74.10;99188.03;10278635;28;20068;-56
2022/12/20 12:47:49;;;;;;;46.08;24.15;;;;;;;1.52;73.58;99178.50;10286204;28;20088;-56
2022/12/20 12:52:52;;;;;;;35.90;18.52;;;;;;;1.50;72.23;99185.19;10288184;28;20053;-55
2022/12/20 12:57:56;;;;;;;37.95;21.75;;;;;;;1.31;72.23;99178.13;10281594;28;20525;-56
2022/12/20 13:02:55;;;;;;;44.90;21.70;;;;;;;1.28;72.51;99173.72;10281592;28;20121;-56
2022/12/20 13:07:54;;;;;;;40.25;20.23;;;;;;;0.96;74.08;99170.97;10286441;28;20049;-56
2022/12/20 13:12:57;;;;;;;34.22;18.00;;;;;;;0.52;75.62;99179.38;10295854;28;20228;-55
2022/12/20 13:17:58;;;;;;;39.05;21.75;;;;;;;0.24;77.08;99172.53;10290392;28;20050;-54
2022/12/20 13:23:06;;;;;;;43.97;23.42;;;;;;;0.22;77.82;99166.50;10291039;28;20069;-55
2022/12/20 13:28:15;;;;;;;33.50;16.92;;;;;;;0.19;77.93;99159.50;10283706;28;20061;-54
2022/12/20 13:33:32;;;;;;;32.67;17.13;;;;;;;0.01;78.45;99166.91;10285617;28;20065;-56
2022/12/20 13:38:57;;;;;;;28.98;15.27;;;;;;;-0.53;80.68;99167.69;10280616;28;20062;-55
2022/12/20 13:44:02;;;;;;;36.38;18.00;;;;;;;-0.58;80.67;99161.38;10289008;28;20451;-56
2022/12/20 13:49:09;;;;;;;35.05;19.45;;;;;;;-0.69;80.27;99162.38;10287099;28;20068;-56
2022/12/20 13:54:18;;;;;;;33.63;17.33;;;;;;;-0.65;80.07;99156.66;10288167;28;20070;-56
2022/12/20 13:59:30;;;;;;;35.87;18.40;;;;;;;-0.66;80.01;99160.00;10288533;28;20085;-55
2022/12/20 14:04:42;;;;;;;36.70;20.65;;;;;;;-0.69;80.29;99152.16;10288678;28;20069;-55
2022/12/20 14:09:44;;;;;;;34.20;17.70;;;;;;;-0.79;80.51;99143.00;10285720;28;20511;-55
2022/12/20 14:14:45;;;;;;;36.08;18.00;;;;;;;-0.93;81.10;99138.66;10284647;28;20503;-55
2022/12/20 14:19:44;;;;;;;34.15;19.48;;;;;;;-1.05;81.04;99134.56;10286523;28;20068;-55
2022/12/20 14:24:43;;;;;;;43.88;20.33;;;;;;;-1.17;81.63;99131.16;10287033;28;20103;-55
2022/12/20 14:29:43;;;;;;;;;;;;;;;-1.32;82.81;99120.84;10285478;28;20061;-55
2022/12/20 14:34:42;;;;;;;37.30;19.08;;;;;;;-1.23;81.87;99124.00;10286673;28;20340;-55
2022/12/20 14:39:54;;;;;;;45.17;22.67;;;;;;;-1.55;83.06;99123.47;10285505;28;20080;-56
2022/12/20 14:45:03;;;;;;;45.75;21.60;;;;;;;-1.69;83.74;99115.78;10285699;28;20073;-55
2022/12/20 14:50:05;;;;;;;40.55;18.63;;;;;;;-1.79;83.72;99112.50;10245524;28;20076;-55
2022/12/20 14:55:13;;;;;;;124.00;60.63;;;;;;;-2.06;84.94;99097.94;10244865;28;20518;-55
2022/12/20 15:00:23;;;;;;;35.80;18.15;;;;;;;-2.30;86.18;99099.66;10286304;28;20515;-55
2022/12/20 15:05:34;;;;;;;46.90;25.67;;;;;;;-2.44;87.13;99096.91;10285645;28;20064;-56
2022/12/20 15:10:33;;;;;;;46.85;24.13;;;;;;;-2.63;87.85;99110.84;10294094;28;20085;-55
2022/12/20 15:15:32;;;;;;;42.47;18.58;;;;;;;-2.88;90.11;99104.75;10284563;28;20070;-54
2022/12/20 15:20:31;;;;;;;46.65;24.48;;;;;;;-2.84;89.42;99101.66;10253555;28;20065;-56
2022/12/20 15:25:35;;;;;;;62.67;29.33;;;;;;;-2.82;88.99;99117.91;10261625;28;20033;-55
2022/12/20 15:30:35;;;;;;;55.72;29.60;;;;;;;-2.75;88.98;99109.97;10273741;28;20070;-55
2022/12/20 15:35:34;;;;;;;61.20;31.75;;;;;;;-2.71;88.32;99102.66;10271370;28;20065;-55
2022/12/20 15:40:33;;;;;;;54.72;28.70;;;;;;;-2.68;88.69;99091.84;10291246;28;20529;-55
2022/12/20 15:45:32;;;;;;;72.20;36.97;;;;;;;-2.71;88.84;99102.66;10275707;28;20530;-55
2022/12/20 15:50:31;;;;;;;;;;;;;;;-2.71;88.46;99101.75;10291384;28;20057;-55
2022/12/20 15:55:30;;;;;;;71.03;35.47;;;;;;;-2.86;89.22;99101.53;10285416;28;19917;-55
2022/12/20 16:00:29;;;;;;;74.45;33.90;;;;;;;-3.19;89.60;99072.91;10288716;28;20038;-55
2022/12/20 16:05:28;;;;;;;59.33;28.52;;;;;;;-2.98;89.88;99113.34;10287213;28;20048;-55
2022/12/20 16:10:27;;;;;;;47.92;22.65;;;;;;;-3.31;91.57;99101.59;10288656;28;20052;-55
2022/12/20 16:15:26;;;;;;;55.92;25.55;;;;;;;-3.44;92.70;99105.72;10287207;28;20511;-55
2022/12/20 16:20:26;;;;;;;49.67;23.10;;;;;;;-3.39;92.05;99106.06;10277240;28;20463;-55
2022/12/20 16:25:29;;;;;;;51.30;24.30;;;;;;;-3.37;91.59;99109.59;10269269;28;20480;-55
2022/12/20 16:30:28;;;;;;;52.90;25.90;;;;;;;-3.33;91.33;99097.25;10254617;28;20084;-55
2022/12/20 16:35:35;;;;;;;55.63;23.58;;;;;;;-3.24;91.37;99096.19;10280778;28;20031;-55
2022/12/20 16:40:34;;;;;;;49.40;24.67;;;;;;;-3.36;91.28;99093.63;10270505;28;20120;-55
2022/12/20 16:45:33;;;;;;;;;;;;;;;-3.39;91.47;99068.00;10264541;28;20192;-55
2022/12/20 16:50:32;;;;;;;59.97;29.70;;;;;;;-3.44;91.79;99077.78;10269824;28;20040;-55
2022/12/20 16:55:31;;;;;;;42.67;19.27;;;;;;;-3.66;93.48;99049.06;10273176;28;20117;-55
2022/12/20 17:00:30;;;;;;;53.90;23.58;;;;;;;-3.61;93.50;99038.47;10275626;28;20109;-55
2022/12/20 17:05:32;;;;;;;75.38;37.13;;;;;;;-3.50;93.42;99030.81;10282322;28;20026;-55
2022/12/20 17:10:31;;;;;;;82.05;41.47;;;;;;;-3.42;93.12;99025.50;10285291;28;20077;-55
2022/12/20 17:15:30;;;;;;;158.18;69.00;;;;;;;-3.38;93.26;99026.63;10283046;28;20084;-55
2022/12/20 17:20:29;;;;;;;;;;;;;;;-3.57;93.97;99029.47;10280796;28;20070;-55
2022/12/20 17:25:34;;;;;;;73.68;39.13;;;;;;;-3.61;94.03;99030.00;10288938;28;20023;-55
2022/12/20 17:30:32;;;;;;;58.58;29.15;;;;;;;-3.60;94.27;99024.13;10288297;28;20651;-55
2022/12/20 17:35:31;;;;;;;61.75;34.38;;;;;;;-3.64;94.88;99012.03;10285673;28;20802;-55
2022/12/20 17:40:30;;;;;;;58.55;29.48;;;;;;;-3.69;94.82;99010.75;10287360;28;20069;-55
2022/12/20 17:45:32;;;;;;;41.92;18.25;;;;;;;-3.87;95.55;99013.69;10286454;28;20116;-55
2022/12/20 17:50:30;;;;;;;53.08;24.58;;;;;;;-3.84;95.88;98998.72;10285325;28;20058;-55
2022/12/20 17:55:29;;;;;;;45.67;18.63;;;;;;;-3.80;95.94;99005.78;10273601;28;20026;-55
2022/12/20 18:00:31;;;;;;;44.08;19.45;;;;;;;-3.80;96.02;99008.31;10274206;28;20503;-55
2022/12/20 18:05:30;;;;;;;71.82;31.98;;;;;;;-3.71;96.09;98999.66;10263688;28;20371;-55
2022/12/20 18:10:29;;;;;;;70.85;34.92;;;;;;;-3.61;95.39;99000.44;10281098;28;20693;-55
2022/12/20 18:15:27;;;;;;;57.50;26.58;;;;;;;-3.49;95.84;98995.38;10276768;28;20126;-55
2022/12/20 18:20:26;;;;;;;72.38;32.65;;;;;;;-3.31;95.55;98992.44;10302196;28;20034;-55
2022/12/20 18:25:25;;;;;;;70.22;31.83;;;;;;;-3.22;95.19;98994.00;10276590;28;20033;-55
2022/12/20 18:30:24;;;;;;;63.10;27.67;;;;;;;-3.16;95.33;98993.53;10267839;28;20145;-55
2022/12/20 18:35:23;;;;;;;63.60;27.95;;;;;;;-3.05;94.98;98991.78;10262367;28;20555;-55
2022/12/20 18:40:22;;;;;;;74.60;34.03;;;;;;;-3.15;94.86;98995.31;10272942;28;20127;-55
2022/12/20 18:45:21;;;;;;;63.85;26.80;;;;;;;-3.10;94.80;98981.28;10281689;28;20030;-55
2022/12/20 18:50:20;;;;;;;77.28;36.33;;;;;;;-3.09;94.33;98970.34;10276911;28;20029;-55
2022/12/20 18:55:19;;;;;;;84.93;35.97;;;;;;;-2.98;94.30;98968.59;10267579;28;20022;-55
2022/12/20 19:00:19;;;;;;;81.18;38.15;;;;;;;-2.98;94.20;98961.84;10258261;28;20503;-55
2022/12/20 19:05:17;;;;;;;91.72;41.63;;;;;;;-2.98;94.01;98949.16;10262724;28;20113;-55
2022/12/20 19:10:17;;;;;;;86.57;39.08;;;;;;;-3.00;93.54;98959.97;10278564;28;20057;-55
2022/12/20 19:15:15;;;;;;;;;;;;;;;-3.11;93.43;98949.03;10280550;28;20120;-55
2022/12/20 19:20:15;;;;;;;74.78;32.78;;;;;;;-3.34;94.64;98958.44;10270420;28;20730;-55
2022/12/20 19:25:13;;;;;;;;;;;;;;;-3.47;95.27;98945.63;10261637;28;20042;-54
2022/12/20 19:30:13;;;;;;;56.53;24.67;;;;;;;-3.57;95.64;98945.75;10260886;28;19995;-55
2022/12/20 19:35:11;;;;;;;;;;;;;;;-3.53;95.80;98950.25;10257656;28;20113;-55
2022/12/20 19:40:11;;;;;;;74.57;33.95;;;;;;;-3.47;95.61;98950.69;10259025;28;19921;-55
2022/12/20 19:45:10;;;;;;;;;;;;;;;-3.41;95.78;98935.94;10265706;28;20133;-55
2022/12/20 19:50:10;;;;;;;66.22;31.00;;;;;;;-3.35;95.42;98931.28;10264327;28;20020;-55
2022/12/20 19:55:09;;;;;;;66.28;28.58;;;;;;;-3.28;95.36;98926.66;10270925;28;20121;-55
2022/12/20 20:00:08;;;;;;;66.00;28.90;;;;;;;-3.27;95.08;98930.94;10268859;28;20041;-55
2022/12/20 20:05:07;;;;;;;84.25;38.15;;;;;;;-3.16;95.05;98925.00;10271412;28;20133;-55
2022/12/20 20:10:07;;;;;;;62.78;27.25;;;;;;;-3.27;95.22;98920.78;10270363;28;20148;-55
2022/12/20 20:15:07;;;;;;;71.60;31.38;;;;;;;-3.37;95.32;98926.88;10270485;28;20121;-55
2022/12/20 20:20:09;;;;;;;69.57;28.02;;;;;;;-3.28;95.23;98927.53;10264109;28;20034;-55
2022/12/20 20:25:09;;;;;;;79.95;34.80;;;;;;;-3.20;95.06;98923.91;10269249;28;20037;-55
2022/12/20 20:30:10;;;;;;;87.70;37.08;;;;;;;-2.99;94.73;98921.09;10273656;28;20769;-55
2022/12/20 20:35:09;;;;;;;74.10;30.55;;;;;;;-3.05;94.71;98915.63;10271310;28;20129;-55
2022/12/20 20:40:09;;;;;;;99.57;41.40;;;;;;;-3.12;94.96;98907.53;10268742;28;20818;-55
2022/12/20 20:45:08;;;;;;;143.15;64.38;;;;;;;-3.00;94.70;98902.44;10267746;28;20033;-55
2022/12/20 20:50:08;;;;;;;107.35;45.75;;;;;;;-2.96;94.79;98906.97;10263997;28;20128;-55
2022/12/20 20:55:07;;;;;;;;;;;;;;;-3.08;94.67;98903.59;10256878;28;20113;-55
2022/12/20 21:00:07;;;;;;;66.80;27.67;;;;;;;-3.42;95.76;98905.34;10279672;28;20036;-55
2022/12/20 21:05:07;;;;;;;84.35;34.97;;;;;;;-3.34;95.49;98905.16;10274614;28;20480;-55
2022/12/20 21:10:07;;;;;;;76.90;32.35;;;;;;;-3.39;95.60;98896.31;10284344;28;20137;-55
2022/12/20 21:15:07;;;;;;;75.90;32.90;;;;;;;-3.40;95.59;98899.63;10271200;28;20122;-55
2022/12/20 21:20:06;;;;;;;143.40;69.03;;;;;;;-3.42;95.98;98882.53;10265653;28;20062;-55
2022/12/20 21:25:07;;;;;;;75.93;31.85;;;;;;;-3.27;95.53;98892.88;10278167;28;20502;-55
2022/12/20 21:30:06;;;;;;;79.70;31.88;;;;;;;-3.22;95.46;98889.91;10253099;28;20563;-55
2022/12/20 21:35:06;;;;;;;77.93;28.17;;;;;;;-3.07;95.44;98879.94;10267827;28;20132;-55
2022/12/20 21:40:05;;;;;;;;;;;;;;;-3.02;95.49;98883.69;10275078;28;20468;-55
2022/12/20 21:45:04;;;;;;;74.35;28.48;;;;;;;-2.88;95.60;98871.06;10260846;28;20020;-55
2022/12/20 21:50:04;;;;;;;73.45;31.67;;;;;;;-2.84;95.00;98873.06;10262522;28;20128;-55
2022/12/20 21:55:03;;;;;;;79.35;31.92;;;;;;;-2.74;95.10;98848.38;10266343;28;20460;-55
2022/12/20 22:00:02;;;;;;;;;;;;;;;-2.64;94.58;98849.91;10259868;28;20547;-55
2022/12/20 22:05:01;;;;;;;82.72;34.25;;;;;;;-2.62;94.70;98840.72;10267200;28;20011;-55
2022/12/20 22:10:00;;;;;;;67.00;26.75;;;;;;;-2.52;94.93;98835.50;10270083;28;20052;-55
2022/12/20 22:14:59;;;;;;;71.65;31.15;;;;;;;-2.43;94.71;98836.88;10263159;28;20172;-55
2022/12/20 22:19:58;;;;;;;77.13;26.45;;;;;;;-2.37;94.00;98820.38;10263908;28;20018;-55
2022/12/20 22:24:57;;;;;;;73.70;28.27;;;;;;;-2.40;93.84;98820.19;10267797;28;20040;-55
2022/12/20 22:29:56;;;;;;;84.22;30.27;;;;;;;-2.47;93.25;98817.13;10262549;28;20071;-55
2022/12/20 22:34:55;;;;;;;93.05;29.98;;;;;;;-2.67;93.34;98801.41;10263762;28;20032;-55
2022/12/20 22:39:53;;;;;;;89.78;34.17;;;;;;;-2.73;93.39;98793.41;10259986;28;20030;-55
2022/12/20 22:44:53;;;;;;;106.32;40.38;;;;;;;-2.96;93.90;98794.38;10266719;28;20030;-55
2022/12/20 22:49:51;;;;;;;;;;;;;;;-3.18;94.09;98785.28;10262045;28;20137;-55
2022/12/20 22:54:50;;;;;;;102.32;38.05;;;;;;;-3.29;94.64;98775.16;10262714;28;19957;-55
2022/12/20 22:59:50;;;;;;;102.78;39.70;;;;;;;-3.28;94.49;98761.69;10266437;28;20065;-55
2022/12/20 23:04:48;;;;;;;;;;;;;;;-3.24;94.28;98758.59;10292703;28;20571;-55